TimePDT,TemperatureF,Dew PointF,Humidity,Sea Level PressureIn,VisibilityMPH,Wind Direction,Wind SpeedMPH,Gust SpeedMPH,PrecipitationIn,Events,Conditions,WindDirDegrees,DateUTC
12:55 AM,55.9,52.0,87,29.95,9.0,ENE,4.6,-,N/A,,Clear,60,2013-10-08 07:55:00
1:55 AM,55.9,52.0,87,29.94,8.0,NE,5.8,-,N/A,,Clear,50,2013-10-08 08:55:00
2:55 AM,55.0,53.1,93,29.93,5.0,ENE,5.8,-,N/A,,Clear,70,2013-10-08 09:55:00
3:55 AM,52.0,48.9,89,29.92,5.0,WNW,5.8,-,N/A,,Clear,290,2013-10-08 10:55:00
4:25 AM,51.8,50.0,94,29.89,1.8,West,5.8,-,N/A,,Clear,280,2013-10-08 11:25:00
4:28 AM,51.8,50.0,94,29.89,1.0,West,4.6,-,N/A,,Mist,280,2013-10-08 11:28:00
4:36 AM,51.8,50.0,94,29.89,1.8,WNW,3.5,-,N/A,,Clear,290,2013-10-08 11:36:00
4:39 AM,51.8,50.0,94,29.89,3.0,Calm,Calm,-,N/A,,Clear,0,2013-10-08 11:39:00
4:45 AM,51.8,50.0,94,29.89,2.5,Calm,Calm,-,N/A,,Partly Cloudy,0,2013-10-08 11:45:00
4:47 AM,51.8,51.8,100,29.89,1.2,Calm,Calm,-,N/A,,Partly Cloudy,0,2013-10-08 11:47:00
4:49 AM,51.8,51.8,100,29.89,0.8,Calm,Calm,-,N/A,,Mist,0,2013-10-08 11:49:00
4:55 AM,51.1,50.0,96,29.92,0.8,Calm,Calm,-,N/A,,Mist,0,2013-10-08 11:55:00
4:58 AM,50.0,50.0,100,29.89,1.2,Calm,Calm,-,N/A,,Partly Cloudy,0,2013-10-08 11:58:00
5:00 AM,50.0,48.2,94,29.89,2.5,Calm,Calm,-,N/A,,Partly Cloudy,0,2013-10-08 12:00:00
5:07 AM,50.0,48.2,94,29.89,6.0,Calm,Calm,-,N/A,,Partly Cloudy,0,2013-10-08 12:07:00
5:55 AM,51.1,46.9,86,29.92,10.0,NE,3.5,-,N/A,,Clear,50,2013-10-08 12:55:00
6:55 AM,50.0,44.1,80,29.93,10.0,NE,5.8,-,N/A,,Clear,50,2013-10-08 13:55:00
7:55 AM,55.0,45.0,69,29.94,10.0,ENE,4.6,-,N/A,,Clear,60,2013-10-08 14:55:00
8:55 AM,60.1,50.0,69,29.95,9.0,Calm,Calm,-,N/A,,Clear,0,2013-10-08 15:55:00
9:55 AM,64.0,53.1,67,29.95,10.0,NNW,4.6,-,N/A,,Clear,330,2013-10-08 16:55:00
10:55 AM,66.0,55.0,68,29.94,10.0,WSW,4.6,-,N/A,,Clear,250,2013-10-08 17:55:00
11:55 AM,68.0,55.0,63,29.93,10.0,WSW,6.9,-,N/A,,Clear,240,2013-10-08 18:55:00
12:55 PM,69.1,55.0,61,29.91,10.0,SSW,11.5,-,N/A,,Clear,210,2013-10-08 19:55:00
1:55 PM,69.1,55.0,61,29.89,10.0,SW,13.8,20.7,N/A,,Clear,220,2013-10-08 20:55:00
2:55 PM,69.1,55.0,61,29.87,10.0,SW,8.1,-,N/A,,Clear,230,2013-10-08 21:55:00
3:55 PM,68.0,55.0,63,29.86,10.0,SW,11.5,-,N/A,,Clear,220,2013-10-08 22:55:00
4:55 PM,64.9,55.0,70,29.85,10.0,SSW,6.9,-,N/A,,Mostly Cloudy,210,2013-10-08 23:55:00
5:55 PM,64.0,55.0,73,29.86,10.0,WSW,9.2,-,N/A,,Mostly Cloudy,250,2013-10-09 00:55:00
6:55 PM,63.0,54.0,72,29.86,10.0,West,9.2,-,N/A,,Overcast,280,2013-10-09 01:55:00
7:55 PM,61.0,53.1,75,29.86,10.0,West,4.6,-,N/A,,Partly Cloudy,280,2013-10-09 02:55:00
8:55 PM,60.1,52.0,75,29.86,10.0,Calm,Calm,-,N/A,,Clear,0,2013-10-09 03:55:00
9:15 PM,60.8,53.6,77,29.84,10.0,Calm,Calm,-,N/A,,Mostly Cloudy,0,2013-10-09 04:15:00
9:55 PM,61.0,52.0,72,29.85,10.0,WNW,4.6,-,N/A,,Overcast,290,2013-10-09 04:55:00
10:44 PM,60.8,53.6,77,29.83,10.0,NW,3.5,-,N/A,,Overcast,320,2013-10-09 05:44:00
10:55 PM,61.0,53.1,75,29.86,10.0,North,3.5,-,N/A,,Overcast,350,2013-10-09 05:55:00
11:55 PM,61.0,53.1,75,29.84,10.0,WNW,5.8,-,N/A,,Overcast,290,2013-10-09 06:55:00